sensor_id;sensor_type;location;lat;lon;timestamp;pressure;altitude;pressure_sealevel;temperature;humidity
829;BME280;396;52.558;13.188;2023-08-01T00:01:38;99604.38;;;18.50;100.00
829;BME280;396;52.558;13.188;2023-08-01T00:04:05;99609.88;;;18.54;100.00
829;BME280;396;52.558;13.188;2023-08-01T00:06:32;99611.44;;;18.51;100.00
829;BME280;396;52.558;13.188;2023-08-01T00:09:00;99606.31;;;18.46;100.00
829;BME280;396;52.558;13.188;2023-08-01T00:11:26;99605.88;;;18.44;100.00
829;BME280;396;52.558;13.188;2023-08-01T00:13:53;99593.69;;;18.38;100.00
829;BME280;396;52.558;13.188;2023-08-01T00:16:19;99588.53;;;18.29;100.00
829;BME280;396;52.558;13.188;2023-08-01T00:18:46;99590.47;;;18.29;100.00
829;BME280;396;52.558;13.188;2023-08-01T00:21:13;99581.78;;;18.23;100.00
829;BME280;396;52.558;13.188;2023-08-01T00:23:39;99580.22;;;18.22;100.00
829;BME280;396;52.558;13.188;2023-08-01T00:26:07;99574.69;;;18.15;100.00
829;BME280;396;52.558;13.188;2023-08-01T00:28:34;99567.94;;;18.09;100.00
829;BME280;396;52.558;13.188;2023-08-01T00:31:07;99549.91;;;18.04;100.00
829;BME280;396;52.558;13.188;2023-08-01T00:33:35;99549.84;;;18.01;100.00
829;BME280;396;52.558;13.188;2023-08-01T00:36:01;99541.59;;;17.94;100.00
829;BME280;396;52.558;13.188;2023-08-01T00:38:28;99551.28;;;17.87;100.00
829;BME280;396;52.558;13.188;2023-08-01T00:40:55;99542.66;;;17.85;100.00
829;BME280;396;52.558;13.188;2023-08-01T00:43:23;99542.66;;;17.85;100.00
829;BME280;396;52.558;13.188;2023-08-01T00:45:49;99537.09;;;17.78;100.00
829;BME280;396;52.558;13.188;2023-08-01T00:48:17;99539.00;;;17.74;100.00
829;BME280;396;52.558;13.188;2023-08-01T00:50:44;99545.59;;;17.70;100.00
829;BME280;396;52.558;13.188;2023-08-01T00:53:11;99536.97;;;17.68;100.00
829;BME280;396;52.558;13.188;2023-08-01T00:55:38;99528.75;;;17.68;100.00
829;BME280;396;52.558;13.188;2023-08-01T00:58:05;99525.63;;;17.69;100.00
829;BME280;396;52.558;13.188;2023-08-01T01:00:33;99521.31;;;17.68;100.00
829;BME280;396;52.558;13.188;2023-08-01T01:03:00;99526.00;;;17.68;100.00
829;BME280;396;52.558;13.188;2023-08-01T01:05:27;99509.59;;;17.68;100.00
829;BME280;396;52.558;13.188;2023-08-01T01:07:58;99508.78;;;17.67;100.00
829;BME280;396;52.558;13.188;2023-08-01T01:10:24;99508.78;;;17.67;100.00
829;BME280;396;52.558;13.188;2023-08-01T01:12:51;99507.63;;;17.68;100.00
829;BME280;396;52.558;13.188;2023-08-01T01:15:18;99504.16;;;17.71;100.00
829;BME280;396;52.558;13.188;2023-08-01T01:17:46;99492.75;;;17.69;100.00
829;BME280;396;52.558;13.188;2023-08-01T01:20:12;99476.69;;;17.64;100.00
829;BME280;396;52.558;13.188;2023-08-01T01:22:40;99455.16;;;17.62;100.00
829;BME280;396;52.558;13.188;2023-08-01T01:25:09;99441.75;;;17.54;100.00
829;BME280;396;52.558;13.188;2023-08-01T01:27:37;99442.91;;;17.53;100.00
829;BME280;396;52.558;13.188;2023-08-01T01:30:06;99436.66;;;17.52;100.00
829;BME280;396;52.558;13.188;2023-08-01T01:32:33;99440.16;;;17.53;100.00
829;BME280;396;52.558;13.188;2023-08-01T01:35:01;99447.59;;;17.52;100.00
829;BME280;396;52.558;13.188;2023-08-01T01:37:28;99460.88;;;17.50;100.00
829;BME280;396;52.558;13.188;2023-08-01T01:39:56;99445.25;;;17.51;100.00
829;BME280;396;52.558;13.188;2023-08-01T01:42:23;99446.03;;;17.51;100.00
829;BME280;396;52.558;13.188;2023-08-01T01:44:49;99449.59;;;17.55;100.00
829;BME280;396;52.558;13.188;2023-08-01T01:47:17;99452.28;;;17.52;100.00
829;BME280;396;52.558;13.188;2023-08-01T01:49:43;99447.97;;;17.51;100.00
829;BME280;396;52.558;13.188;2023-08-01T01:52:10;99446.06;;;17.55;100.00
829;BME280;396;52.558;13.188;2023-08-01T01:54:36;99431.59;;;17.54;100.00
829;BME280;396;52.558;13.188;2023-08-01T01:57:05;99413.97;;;17.52;100.00
829;BME280;396;52.558;13.188;2023-08-01T01:59:31;99409.69;;;17.54;100.00
829;BME280;396;52.558;13.188;2023-08-01T02:01:58;99403.81;;;17.56;100.00
829;BME280;396;52.558;13.188;2023-08-01T02:04:25;99388.97;;;17.57;100.00
829;BME280;396;52.558;13.188;2023-08-01T02:06:52;99376.47;;;17.59;100.00
829;BME280;396;52.558;13.188;2023-08-01T02:09:20;99378.84;;;17.61;100.00
829;BME280;396;52.558;13.188;2023-08-01T02:11:46;99387.84;;;17.61;100.00
829;BME280;396;52.558;13.188;2023-08-01T02:14:14;99380.44;;;17.62;100.00
829;BME280;396;52.558;13.188;2023-08-01T02:16:41;99362.41;;;17.61;100.00
829;BME280;396;52.558;13.188;2023-08-01T02:19:08;99363.19;;;17.61;100.00
829;BME280;396;52.558;13.188;2023-08-01T02:21:34;99369.47;;;17.62;100.00
829;BME280;396;52.558;13.188;2023-08-01T02:24:01;99365.56;;;17.63;100.00
829;BME280;396;52.558;13.188;2023-08-01T02:26:28;99362.81;;;17.63;100.00
829;BME280;396;52.558;13.188;2023-08-01T02:28:55;99367.13;;;17.64;100.00
829;BME280;396;52.558;13.188;2023-08-01T02:31:23;99363.22;;;17.65;100.00
829;BME280;396;52.558;13.188;2023-08-01T02:33:49;99363.22;;;17.65;100.00
829;BME280;396;52.558;13.188;2023-08-01T02:36:16;99358.53;;;17.65;100.00
829;BME280;396;52.558;13.188;2023-08-01T02:38:42;99358.16;;;17.67;100.00
829;BME280;396;52.558;13.188;2023-08-01T02:41:09;99348.34;;;17.66;100.00
829;BME280;396;52.558;13.188;2023-08-01T02:43:36;99351.09;;;17.66;100.00
829;BME280;396;52.558;13.188;2023-08-01T02:46:02;99347.59;;;17.69;100.00
829;BME280;396;52.558;13.188;2023-08-01T02:48:32;99339.38;;;17.69;100.00
829;BME280;396;52.558;13.188;2023-08-01T02:51:00;99337.44;;;17.70;100.00
829;BME280;396;52.558;13.188;2023-08-01T02:53:27;99347.63;;;17.73;100.00
829;BME280;396;52.558;13.188;2023-08-01T02:55:54;99343.41;;;17.75;100.00
829;BME280;396;52.558;13.188;2023-08-01T02:58:20;99339.47;;;17.76;100.00
829;BME280;396;52.558;13.188;2023-08-01T03:00:47;99332.44;;;17.75;100.00
829;BME280;396;52.558;13.188;2023-08-01T03:03:13;99329.25;;;17.73;100.00
829;BME280;396;52.558;13.188;2023-08-01T03:05:42;99329.69;;;17.75;100.00
829;BME280;396;52.558;13.188;2023-08-01T03:08:08;99330.09;;;17.77;100.00
829;BME280;396;52.558;13.188;2023-08-01T03:10:35;99321.84;;;17.74;100.00
829;BME280;396;52.558;13.188;2023-08-01T03:13:02;99319.47;;;17.72;100.00
829;BME280;396;52.558;13.188;2023-08-01T03:15:28;99314.41;;;17.74;100.00
829;BME280;396;52.558;13.188;2023-08-01T03:17:55;99313.63;;;17.74;100.00
829;BME280;396;52.558;13.188;2023-08-01T03:20:21;99311.25;;;17.72;100.00
829;BME280;396;52.558;13.188;2023-08-01T03:22:49;99307.78;;;17.75;100.00
829;BME280;396;52.558;13.188;2023-08-01T03:25:16;99296.03;;;17.75;100.00
829;BME280;396;52.558;13.188;2023-08-01T03:27:43;99290.91;;;17.73;100.00
829;BME280;396;52.558;13.188;2023-08-01T03:30:10;99286.19;;;17.70;100.00
829;BME280;396;52.558;13.188;2023-08-01T03:32:36;99281.47;;;17.67;100.00
829;BME280;396;52.558;13.188;2023-08-01T03:35:04;99286.19;;;17.70;100.00
829;BME280;396;52.558;13.188;2023-08-01T03:37:30;99290.06;;;17.65;100.00
829;BME280;396;52.558;13.188;2023-08-01T03:39:58;99280.28;;;17.64;100.00
829;BME280;396;52.558;13.188;2023-08-01T03:42:25;99281.03;;;17.61;100.00
829;BME280;396;52.558;13.188;2023-08-01T03:44:52;99279.47;;;17.60;100.00
829;BME280;396;52.558;13.188;2023-08-01T03:47:18;99274.84;;;17.68;100.00
829;BME280;396;52.558;13.188;2023-08-01T03:49:45;99275.66;;;17.72;100.00
829;BME280;396;52.558;13.188;2023-08-01T03:52:11;99278.81;;;17.74;100.00
829;BME280;396;52.558;13.188;2023-08-01T03:54:38;99278.44;;;17.76;100.00
829;BME280;396;52.558;13.188;2023-08-01T03:57:06;99276.50;;;17.76;100.00
829;BME280;396;52.558;13.188;2023-08-01T03:59:33;99277.28;;;17.80;100.00
829;BME280;396;52.558;13.188;2023-08-01T04:01:59;99279.66;;;17.85;100.00
829;BME280;396;52.558;13.188;2023-08-01T04:04:26;99269.50;;;17.86;100.00
829;BME280;396;52.558;13.188;2023-08-01T04:06:52;99271.06;;;17.87;100.00
829;BME280;396;52.558;13.188;2023-08-01T04:09:19;99268.31;;;17.87;100.00
829;BME280;396;52.558;13.188;2023-08-01T04:11:45;99270.69;;;17.92;100.00
829;BME280;396;52.558;13.188;2023-08-01T04:14:14;99277.38;;;17.95;100.00
829;BME280;396;52.558;13.188;2023-08-01T04:16:40;99265.25;;;17.96;100.00
829;BME280;396;52.558;13.188;2023-08-01T04:19:07;99271.91;;;17.98;100.00
829;BME280;396;52.558;13.188;2023-08-01T04:21:33;99269.59;;;18.04;100.00
829;BME280;396;52.558;13.188;2023-08-01T04:24:00;99268.06;;;18.06;100.00
829;BME280;396;52.558;13.188;2023-08-01T04:26:27;99262.19;;;18.08;100.00
829;BME280;396;52.558;13.188;2023-08-01T04:28:53;99258.69;;;18.11;100.00
829;BME280;396;52.558;13.188;2023-08-01T04:31:21;99263.75;;;18.09;100.00
829;BME280;396;52.558;13.188;2023-08-01T04:33:48;99258.28;;;18.12;100.00
829;BME280;396;52.558;13.188;2023-08-01T04:36:14;99262.22;;;18.15;100.00
829;BME280;396;52.558;13.188;2023-08-01T04:38:41;99262.22;;;18.11;100.00
829;BME280;396;52.558;13.188;2023-08-01T04:41:08;99264.16;;;18.11;100.00
829;BME280;396;52.558;13.188;2023-08-01T04:43:34;99259.88;;;18.17;100.00
829;BME280;396;52.558;13.188;2023-08-01T04:46:01;99251.25;;;18.15;100.00
829;BME280;396;52.558;13.188;2023-08-01T04:48:29;99241.47;;;18.18;100.00
829;BME280;396;52.558;13.188;2023-08-01T04:50:55;99231.28;;;18.18;100.00
829;BME280;396;52.558;13.188;2023-08-01T04:53:22;99236.78;;;18.22;100.00
829;BME280;396;52.558;13.188;2023-08-01T04:55:48;99228.19;;;18.20;100.00
829;BME280;396;52.558;13.188;2023-08-01T04:58:15;99218.81;;;18.24;100.00
829;BME280;396;52.558;13.188;2023-08-01T05:00:42;99225.44;;;18.23;100.00
829;BME280;396;52.558;13.188;2023-08-01T05:03:09;99214.88;;;18.25;100.00
829;BME280;396;52.558;13.188;2023-08-01T05:05:37;99221.53;;;18.28;100.00
829;BME280;396;52.558;13.188;2023-08-01T05:08:04;99216.44;;;18.26;100.00
829;BME280;396;52.558;13.188;2023-08-01T05:10:30;99212.94;;;18.26;100.00
829;BME280;396;52.558;13.188;2023-08-01T05:12:57;99217.25;;;18.30;100.00
829;BME280;396;52.558;13.188;2023-08-01T05:15:23;99200.00;;;18.30;100.00
829;BME280;396;52.558;13.188;2023-08-01T05:17:50;99203.13;;;18.32;100.00
829;BME280;396;52.558;13.188;2023-08-01T05:20:17;99196.13;;;18.34;100.00
829;BME280;396;52.558;13.188;2023-08-01T05:22:45;99191.00;;;18.36;100.00
829;BME280;396;52.558;13.188;2023-08-01T05:25:11;99187.91;;;18.38;100.00
829;BME280;396;52.558;13.188;2023-08-01T05:27:38;99188.28;;;18.36;100.00
829;BME280;396;52.558;13.188;2023-08-01T05:30:05;99191.03;;;18.40;100.00
829;BME280;396;52.558;13.188;2023-08-01T05:32:32;99189.84;;;18.41;100.00
829;BME280;396;52.558;13.188;2023-08-01T05:34:59;99188.31;;;18.44;100.00
829;BME280;396;52.558;13.188;2023-08-01T05:37:25;99189.50;;;18.46;100.00
829;BME280;396;52.558;13.188;2023-08-01T05:39:53;99184.41;;;18.48;100.00
829;BME280;396;52.558;13.188;2023-08-01T05:42:20;99186.34;;;18.44;100.00
829;BME280;396;52.558;13.188;2023-08-01T05:44:46;99182.03;;;18.43;100.00
829;BME280;396;52.558;13.188;2023-08-01T05:47:13;99178.91;;;18.45;100.00
829;BME280;396;52.558;13.188;2023-08-01T05:49:40;99180.88;;;18.48;100.00
829;BME280;396;52.558;13.188;2023-08-01T05:52:07;99183.63;;;18.48;100.00
829;BME280;396;52.558;13.188;2023-08-01T05:54:34;99184.41;;;18.48;100.00
829;BME280;396;52.558;13.188;2023-08-01T05:57:02;99182.06;;;18.47;100.00
829;BME280;396;52.558;13.188;2023-08-01T05:59:28;99185.94;;;18.49;100.00
829;BME280;396;52.558;13.188;2023-08-01T06:01:55;99174.22;;;18.56;100.00
829;BME280;396;52.558;13.188;2023-08-01T06:04:22;99173.84;;;18.57;100.00
829;BME280;396;52.558;13.188;2023-08-01T06:06:48;99175.41;;;18.62;100.00
829;BME280;396;52.558;13.188;2023-08-01T06:09:15;99173.06;;;18.67;100.00
829;BME280;396;52.558;13.188;2023-08-01T06:11:42;99179.75;;;18.70;100.00
829;BME280;396;52.558;13.188;2023-08-01T06:14:10;99185.97;;;18.67;100.00
829;BME280;396;52.558;13.188;2023-08-01T06:16:37;99180.50;;;18.67;100.00
829;BME280;396;52.558;13.188;2023-08-01T06:19:03;99188.00;;;18.70;100.00
829;BME280;396;52.558;13.188;2023-08-01T06:21:30;99180.13;;;18.72;100.00
829;BME280;396;52.558;13.188;2023-08-01T06:23:57;99176.63;;;18.75;100.00
829;BME280;396;52.558;13.188;2023-08-01T06:26:23;99173.84;;;18.68;100.00
829;BME280;396;52.558;13.188;2023-08-01T06:28:50;99174.28;;;18.70;100.00
829;BME280;396;52.558;13.188;2023-08-01T06:31:19;99174.66;;;18.69;100.00
829;BME280;396;52.558;13.188;2023-08-01T06:33:46;99171.91;;;18.72;100.00
829;BME280;396;52.558;13.188;2023-08-01T06:36:13;99181.31;;;18.75;100.00
829;BME280;396;52.558;13.188;2023-08-01T06:38:41;99179.75;;;18.81;100.00
829;BME280;396;52.558;13.188;2023-08-01T06:41:08;99168.00;;;18.84;100.00
829;BME280;396;52.558;13.188;2023-08-01T06:43:35;99171.16;;;18.86;100.00
829;BME280;396;52.558;13.188;2023-08-01T06:46:02;99165.28;;;18.87;100.00
829;BME280;396;52.558;13.188;2023-08-01T06:48:30;99163.31;;;18.92;100.00
829;BME280;396;52.558;13.188;2023-08-01T06:50:59;99168.81;;;18.92;100.00
829;BME280;396;52.558;13.188;2023-08-01T06:53:26;99168.81;;;18.92;100.00
829;BME280;396;52.558;13.188;2023-08-01T06:55:53;99163.31;;;18.95;100.00
829;BME280;396;52.558;13.188;2023-08-01T06:58:19;99159.41;;;19.00;100.00
829;BME280;396;52.558;13.188;2023-08-01T07:00:46;99160.97;;;19.01;100.00
829;BME280;396;52.558;13.188;2023-08-01T07:03:13;99160.97;;;19.04;100.00
829;BME280;396;52.558;13.188;2023-08-01T07:05:41;99165.66;;;19.07;100.00
829;BME280;396;52.558;13.188;2023-08-01T07:08:08;99160.94;;;19.19;100.00
829;BME280;396;52.558;13.188;2023-08-01T07:10:35;99164.44;;;19.33;100.00
829;BME280;396;52.558;13.188;2023-08-01T07:13:02;99167.19;;;19.33;100.00
829;BME280;396;52.558;13.188;2023-08-01T07:15:29;99167.56;;;19.42;100.00
829;BME280;396;52.558;13.188;2023-08-01T07:17:56;99153.41;;;19.48;100.00
829;BME280;396;52.558;13.188;2023-08-01T07:20:23;99163.63;;;19.51;100.00
829;BME280;396;52.558;13.188;2023-08-01T07:22:50;99151.84;;;19.54;100.00
829;BME280;396;52.558;13.188;2023-08-01T07:25:17;99152.25;;;19.63;100.00
829;BME280;396;52.558;13.188;2023-08-01T07:27:45;99136.53;;;19.71;100.00
829;BME280;396;52.558;13.188;2023-08-01T07:30:12;99138.84;;;19.79;100.00
829;BME280;396;52.558;13.188;2023-08-01T07:32:38;99128.59;;;19.87;100.00
829;BME280;396;52.558;13.188;2023-08-01T07:35:06;99119.91;;;19.96;100.00
829;BME280;396;52.558;13.188;2023-08-01T07:37:33;99120.69;;;20.00;100.00
829;BME280;396;52.558;13.188;2023-08-01T07:40:01;99137.16;;;20.10;100.00
829;BME280;396;52.558;13.188;2023-08-01T07:42:28;99142.22;;;20.19;100.00
829;BME280;396;52.558;13.188;2023-08-01T07:44:55;99131.56;;;20.25;100.00
829;BME280;396;52.558;13.188;2023-08-01T07:47:22;99143.25;;;20.39;100.00
829;BME280;396;52.558;13.188;2023-08-01T07:49:49;99138.88;;;20.49;100.00
829;BME280;396;52.558;13.188;2023-08-01T07:52:16;99142.00;;;20.55;99.74
829;BME280;396;52.558;13.188;2023-08-01T07:54:42;99142.34;;;20.60;98.42
829;BME280;396;52.558;13.188;2023-08-01T07:57:10;99138.72;;;20.71;99.01
829;BME280;396;52.558;13.188;2023-08-01T07:59:37;99135.97;;;20.74;98.61
829;BME280;396;52.558;13.188;2023-08-01T08:02:04;99137.91;;;20.77;98.12
829;BME280;396;52.558;13.188;2023-08-01T08:04:30;99138.34;;;20.72;96.64
829;BME280;396;52.558;13.188;2023-08-01T08:06:57;99158.44;;;20.65;96.02
829;BME280;396;52.558;13.188;2023-08-01T08:09:25;99155.00;;;20.51;97.26
829;BME280;396;52.558;13.188;2023-08-01T08:11:52;99167.22;;;20.39;97.78
829;BME280;396;52.558;13.188;2023-08-01T08:14:20;99167.66;;;20.30;98.58
829;BME280;396;52.558;13.188;2023-08-01T08:16:47;99162.63;;;20.18;100.00
829;BME280;396;52.558;13.188;2023-08-01T08:19:13;99160.25;;;20.20;100.00
829;BME280;396;52.558;13.188;2023-08-01T08:21:40;99161.44;;;20.19;100.00
829;BME280;396;52.558;13.188;2023-08-01T08:24:07;99158.28;;;20.24;99.76
829;BME280;396;52.558;13.188;2023-08-01T08:26:33;99147.38;;;20.10;100.00
829;BME280;396;52.558;13.188;2023-08-01T08:29:02;99136.38;;;20.06;100.00
829;BME280;396;52.558;13.188;2023-08-01T08:31:31;99136.38;;;20.06;100.00
829;BME280;396;52.558;13.188;2023-08-01T08:33:58;99147.31;;;20.17;100.00
829;BME280;396;52.558;13.188;2023-08-01T08:36:24;99144.13;;;20.22;100.00
829;BME280;396;52.558;13.188;2023-08-01T08:38:51;99139.41;;;20.26;100.00
829;BME280;396;52.558;13.188;2023-08-01T08:41:20;99140.16;;;20.34;100.00
829;BME280;396;52.558;13.188;2023-08-01T08:43:48;99137.31;;;20.45;100.00
829;BME280;396;52.558;13.188;2023-08-01T08:46:15;99135.69;;;20.58;99.50
829;BME280;396;52.558;13.188;2023-08-01T08:48:44;99141.94;;;20.62;98.96
829;BME280;396;52.558;13.188;2023-08-01T08:51:11;99136.84;;;20.64;97.55
829;BME280;396;52.558;13.188;2023-08-01T08:53:40;99129.78;;;20.63;96.77
829;BME280;396;52.558;13.188;2023-08-01T08:56:08;99132.09;;;20.68;97.77
829;BME280;396;52.558;13.188;2023-08-01T08:58:35;99142.22;;;20.78;95.20
829;BME280;396;52.558;13.188;2023-08-01T09:01:05;99134.28;;;20.87;95.78
829;BME280;396;52.558;13.188;2023-08-01T09:03:32;99124.03;;;20.91;94.49
829;BME280;396;52.558;13.188;2023-08-01T09:06:04;99124.63;;;21.10;94.90
829;BME280;396;52.558;13.188;2023-08-01T09:08:36;99120.19;;;21.23;94.12
829;BME280;396;52.558;13.188;2023-08-01T09:11:03;99123.66;;;21.34;93.98
829;BME280;396;52.558;13.188;2023-08-01T09:13:30;99134.66;;;21.34;91.43
829;BME280;396;52.558;13.188;2023-08-01T09:15:57;99122.03;;;21.37;94.99
829;BME280;396;52.558;13.188;2023-08-01T09:18:24;99120.81;;;21.41;91.71
829;BME280;396;52.558;13.188;2023-08-01T09:20:50;99118.50;;;21.36;91.57
829;BME280;396;52.558;13.188;2023-08-01T09:23:18;99122.88;;;21.30;89.86
829;BME280;396;52.558;13.188;2023-08-01T09:25:45;99127.31;;;21.21;90.78
829;BME280;396;52.558;13.188;2023-08-01T09:28:19;99121.22;;;20.99;93.74
829;BME280;396;52.558;13.188;2023-08-01T09:30:48;99124.50;;;20.79;94.41
829;BME280;396;52.558;13.188;2023-08-01T09:33:15;99130.59;;;20.56;95.86
829;BME280;396;52.558;13.188;2023-08-01T09:35:42;99113.06;;;20.32;100.00
829;BME280;396;52.558;13.188;2023-08-01T09:38:12;99110.34;;;20.22;100.00
829;BME280;396;52.558;13.188;2023-08-01T09:40:40;99107.28;;;20.12;100.00
829;BME280;396;52.558;13.188;2023-08-01T09:43:07;99118.28;;;20.05;100.00
829;BME280;396;52.558;13.188;2023-08-01T09:45:33;99110.13;;;19.95;100.00
829;BME280;396;52.558;13.188;2023-08-01T09:48:02;99112.09;;;19.90;100.00
829;BME280;396;52.558;13.188;2023-08-01T09:50:29;99111.31;;;19.86;100.00
829;BME280;396;52.558;13.188;2023-08-01T09:52:55;99119.56;;;19.90;100.00
829;BME280;396;52.558;13.188;2023-08-01T09:55:27;99114.06;;;19.90;100.00
829;BME280;396;52.558;13.188;2023-08-01T09:57:59;99109.34;;;19.94;100.00
829;BME280;396;52.558;13.188;2023-08-01T10:00:26;99107.78;;;19.93;100.00
829;BME280;396;52.558;13.188;2023-08-01T10:02:54;99119.16;;;19.91;100.00
829;BME280;396;52.558;13.188;2023-08-01T10:05:21;99103.06;;;19.90;100.00
829;BME280;396;52.558;13.188;2023-08-01T10:07:51;99119.16;;;19.91;100.00
829;BME280;396;52.558;13.188;2023-08-01T10:10:20;99114.47;;;19.88;100.00
829;BME280;396;52.558;13.188;2023-08-01T10:12:47;99107.44;;;19.80;100.00
829;BME280;396;52.558;13.188;2023-08-01T10:15:16;99104.72;;;19.73;100.00
829;BME280;396;52.558;13.188;2023-08-01T10:17:43;99109.88;;;19.57;100.00
829;BME280;396;52.558;13.188;2023-08-01T10:20:12;99124.81;;;19.41;100.00
829;BME280;396;52.558;13.188;2023-08-01T10:22:39;99143.28;;;19.30;100.00
829;BME280;396;52.558;13.188;2023-08-01T10:25:09;99149.19;;;19.11;100.00
829;BME280;396;52.558;13.188;2023-08-01T10:27:36;99156.25;;;18.90;100.00
829;BME280;396;52.558;13.188;2023-08-01T10:30:03;99157.81;;;18.77;100.00
829;BME280;396;52.558;13.188;2023-08-01T10:32:34;99149.97;;;18.72;100.00
829;BME280;396;52.558;13.188;2023-08-01T10:35:01;99160.91;;;18.65;100.00
829;BME280;396;52.558;13.188;2023-08-01T10:37:39;99146.81;;;18.56;100.00
829;BME280;396;52.558;13.188;2023-08-01T10:40:07;99160.91;;;18.51;100.00
829;BME280;396;52.558;13.188;2023-08-01T10:42:38;99171.47;;;18.49;100.00
829;BME280;396;52.558;13.188;2023-08-01T10:45:05;99164.00;;;18.46;100.00
829;BME280;396;52.558;13.188;2023-08-01T10:47:34;99176.16;;;18.45;100.00
829;BME280;396;52.558;13.188;2023-08-01T10:50:00;99173.41;;;18.45;100.00
829;BME280;396;52.558;13.188;2023-08-01T10:52:28;99180.47;;;18.42;100.00
829;BME280;396;52.558;13.188;2023-08-01T10:54:58;99172.59;;;18.30;100.00
829;BME280;396;52.558;13.188;2023-08-01T10:57:27;99179.63;;;18.27;100.00
829;BME280;396;52.558;13.188;2023-08-01T10:59:55;99186.66;;;18.21;100.00
829;BME280;396;52.558;13.188;2023-08-01T11:02:23;99183.13;;;18.17;100.00
829;BME280;396;52.558;13.188;2023-08-01T11:04:58;99183.97;;;18.28;100.00
829;BME280;396;52.558;13.188;2023-08-01T11:07:25;99178.91;;;18.37;100.00
829;BME280;396;52.558;13.188;2023-08-01T11:10:06;99173.81;;;18.47;100.00
829;BME280;396;52.558;13.188;2023-08-01T11:12:35;99161.28;;;18.53;100.00
829;BME280;396;52.558;13.188;2023-08-01T11:15:03;99165.56;;;18.50;100.00
829;BME280;396;52.558;13.188;2023-08-01T11:17:31;99161.66;;;18.55;100.00
829;BME280;396;52.558;13.188;2023-08-01T11:20:04;99170.31;;;18.57;100.00
829;BME280;396;52.558;13.188;2023-08-01T11:22:32;99178.56;;;18.64;100.00
829;BME280;396;52.558;13.188;2023-08-01T11:24:59;99182.88;;;18.72;100.00
829;BME280;396;52.558;13.188;2023-08-01T11:27:26;99187.63;;;18.82;100.00
829;BME280;396;52.558;13.188;2023-08-01T11:29:53;99193.88;;;18.97;100.00
829;BME280;396;52.558;13.188;2023-08-01T11:32:20;99198.59;;;19.11;100.00
829;BME280;396;52.558;13.188;2023-08-01T11:34:48;99201.72;;;19.20;100.00
829;BME280;396;52.558;13.188;2023-08-01T11:37:18;99190.75;;;19.27;100.00
829;BME280;396;52.558;13.188;2023-08-01T11:39:45;99186.78;;;19.46;100.00
829;BME280;396;52.558;13.188;2023-08-01T11:42:16;99192.66;;;19.59;100.00
829;BME280;396;52.558;13.188;2023-08-01T11:44:43;99193.81;;;19.76;100.00
829;BME280;396;52.558;13.188;2023-08-01T11:47:11;99193.78;;;19.90;100.00
829;BME280;396;52.558;13.188;2023-08-01T11:49:39;99196.09;;;19.99;100.00
829;BME280;396;52.558;13.188;2023-08-01T11:52:07;99192.94;;;20.04;99.38
829;BME280;396;52.558;13.188;2023-08-01T11:54:44;99186.59;;;20.14;100.00
829;BME280;396;52.558;13.188;2023-08-01T11:57:11;99196.38;;;20.26;100.00
829;BME280;396;52.558;13.188;2023-08-01T11:59:46;99202.56;;;20.48;99.99
829;BME280;396;52.558;13.188;2023-08-01T12:02:20;99193.34;;;20.76;97.80
829;BME280;396;52.558;13.188;2023-08-01T12:04:47;99205.06;;;20.90;94.33
829;BME280;396;52.558;13.188;2023-08-01T12:07:13;99206.91;;;21.04;93.56
829;BME280;396;52.558;13.188;2023-08-01T12:09:40;99190.09;;;20.91;93.14
829;BME280;396;52.558;13.188;2023-08-01T12:12:09;99199.59;;;20.83;94.39
829;BME280;396;52.558;13.188;2023-08-01T12:14:39;99204.75;;;20.78;91.38
829;BME280;396;52.558;13.188;2023-08-01T12:17:06;99221.81;;;20.51;92.81
829;BME280;396;52.558;13.188;2023-08-01T12:19:33;99211.66;;;20.30;93.46
829;BME280;396;52.558;13.188;2023-08-01T12:22:00;99205.56;;;20.71;93.15
829;BME280;396;52.558;13.188;2023-08-01T12:24:27;99206.31;;;21.27;89.44
829;BME280;396;52.558;13.188;2023-08-01T12:26:53;99221.13;;;21.85;87.07
829;BME280;396;52.558;13.188;2023-08-01T12:29:21;99217.31;;;22.13;84.40
829;BME280;396;52.558;13.188;2023-08-01T12:31:48;99216.72;;;21.91;86.67
829;BME280;396;52.558;13.188;2023-08-01T12:34:15;99216.94;;;21.74;86.48
829;BME280;396;52.558;13.188;2023-08-01T12:36:41;99203.31;;;21.94;88.36
829;BME280;396;52.558;13.188;2023-08-01T12:39:08;99213.38;;;22.07;86.45
829;BME280;396;52.558;13.188;2023-08-01T12:41:36;99222.81;;;22.10;86.40
829;BME280;396;52.558;13.188;2023-08-01T12:44:03;99219.00;;;22.00;87.21
829;BME280;396;52.558;13.188;2023-08-01T12:46:31;99212.84;;;21.85;85.59
829;BME280;396;52.558;13.188;2023-08-01T12:48:58;99219.63;;;21.77;85.89
829;BME280;396;52.558;13.188;2023-08-01T12:51:25;99214.88;;;21.78;85.70
829;BME280;396;52.558;13.188;2023-08-01T12:53:52;99217.22;;;21.83;86.68
829;BME280;396;52.558;13.188;2023-08-01T12:56:18;99207.13;;;22.03;83.08
829;BME280;396;52.558;13.188;2023-08-01T12:58:45;99214.72;;;22.57;83.68
829;BME280;396;52.558;13.188;2023-08-01T13:01:11;99222.00;;;23.01;79.78
829;BME280;396;52.558;13.188;2023-08-01T13:03:39;99212.16;;;23.47;75.71
829;BME280;396;52.558;13.188;2023-08-01T13:06:06;99212.72;;;24.02;76.60
829;BME280;396;52.558;13.188;2023-08-01T13:08:33;99219.72;;;24.66;72.62
829;BME280;396;52.558;13.188;2023-08-01T13:10:59;99220.09;;;25.33;66.57
829;BME280;396;52.558;13.188;2023-08-01T13:13:27;99221.91;;;25.40;65.79
829;BME280;396;52.558;13.188;2023-08-01T13:15:56;99225.13;;;24.53;65.52
829;BME280;396;52.558;13.188;2023-08-01T13:18:23;99215.16;;;24.00;71.62
829;BME280;396;52.558;13.188;2023-08-01T13:20:51;99225.69;;;23.65;72.87
829;BME280;396;52.558;13.188;2023-08-01T13:23:17;99226.56;;;24.02;73.68
829;BME280;396;52.558;13.188;2023-08-01T13:25:44;99226.69;;;24.14;70.89